sensor_id;sensor_type;location;lat;lon;timestamp;temperature;humidity
1385;DHT22;686;51.080;13.716;2022-08-25T00:04:19;19.90;99.90
1385;DHT22;686;51.080;13.716;2022-08-25T00:06:46;19.90;99.90
1385;DHT22;686;51.080;13.716;2022-08-25T00:09:15;19.90;99.90
1385;DHT22;686;51.080;13.716;2022-08-25T00:11:42;19.90;99.90
1385;DHT22;686;51.080;13.716;2022-08-25T00:14:12;19.90;99.90
1385;DHT22;686;51.080;13.716;2022-08-25T00:16:38;19.90;99.90
1385;DHT22;686;51.080;13.716;2022-08-25T00:19:08;19.80;99.90
1385;DHT22;686;51.080;13.716;2022-08-25T00:21:35;19.80;99.90
1385;DHT22;686;51.080;13.716;2022-08-25T00:24:01;19.80;99.90
1385;DHT22;686;51.080;13.716;2022-08-25T00:26:28;19.70;99.90
1385;DHT22;686;51.080;13.716;2022-08-25T00:28:54;19.60;99.90
1385;DHT22;686;51.080;13.716;2022-08-25T00:31:21;19.60;99.90
1385;DHT22;686;51.080;13.716;2022-08-25T00:33:49;19.60;99.90
1385;DHT22;686;51.080;13.716;2022-08-25T00:36:16;19.70;99.90
1385;DHT22;686;51.080;13.716;2022-08-25T00:38:43;19.60;99.90
1385;DHT22;686;51.080;13.716;2022-08-25T00:41:13;19.50;99.90
1385;DHT22;686;51.080;13.716;2022-08-25T00:46:09;19.50;99.90
1385;DHT22;686;51.080;13.716;2022-08-25T00:48:36;19.50;99.90
1385;DHT22;686;51.080;13.716;2022-08-25T00:51:03;19.50;99.90
1385;DHT22;686;51.080;13.716;2022-08-25T00:53:31;19.50;99.90
1385;DHT22;686;51.080;13.716;2022-08-25T00:55:57;19.50;99.90
1385;DHT22;686;51.080;13.716;2022-08-25T00:58:26;19.40;99.90
1385;DHT22;686;51.080;13.716;2022-08-25T01:00:54;19.50;99.90
1385;DHT22;686;51.080;13.716;2022-08-25T01:03:23;19.50;99.90
1385;DHT22;686;51.080;13.716;2022-08-25T01:05:50;19.50;99.90
1385;DHT22;686;51.080;13.716;2022-08-25T01:08:17;19.50;99.90
1385;DHT22;686;51.080;13.716;2022-08-25T01:10:46;19.50;99.90
1385;DHT22;686;51.080;13.716;2022-08-25T01:13:19;19.40;99.90
1385;DHT22;686;51.080;13.716;2022-08-25T01:15:47;19.40;99.90
1385;DHT22;686;51.080;13.716;2022-08-25T01:18:14;19.40;99.90
1385;DHT22;686;51.080;13.716;2022-08-25T01:20:40;19.40;99.90
1385;DHT22;686;51.080;13.716;2022-08-25T01:23:05;19.40;99.90
1385;DHT22;686;51.080;13.716;2022-08-25T01:26:04;19.30;99.90
1385;DHT22;686;51.080;13.716;2022-08-25T01:28:26;19.20;99.90
1385;DHT22;686;51.080;13.716;2022-08-25T01:30:52;19.30;99.90
1385;DHT22;686;51.080;13.716;2022-08-25T01:33:18;19.20;99.90
1385;DHT22;686;51.080;13.716;2022-08-25T01:35:45;19.20;99.90
1385;DHT22;686;51.080;13.716;2022-08-25T01:38:11;19.20;99.90
1385;DHT22;686;51.080;13.716;2022-08-25T01:40:37;19.20;99.90
1385;DHT22;686;51.080;13.716;2022-08-25T01:45:38;19.20;99.90
1385;DHT22;686;51.080;13.716;2022-08-25T01:48:05;19.20;99.90
1385;DHT22;686;51.080;13.716;2022-08-25T01:50:32;19.20;99.90
1385;DHT22;686;51.080;13.716;2022-08-25T01:53:03;19.30;99.90
1385;DHT22;686;51.080;13.716;2022-08-25T01:55:32;19.30;99.90
1385;DHT22;686;51.080;13.716;2022-08-25T01:58:25;19.30;99.90
1385;DHT22;686;51.080;13.716;2022-08-25T02:00:54;19.40;99.90
1385;DHT22;686;51.080;13.716;2022-08-25T02:03:22;19.30;99.90
1385;DHT22;686;51.080;13.716;2022-08-25T02:05:49;19.30;99.90
1385;DHT22;686;51.080;13.716;2022-08-25T02:08:14;19.30;99.90
1385;DHT22;686;51.080;13.716;2022-08-25T02:10:40;19.30;99.90
1385;DHT22;686;51.080;13.716;2022-08-25T02:13:07;19.30;99.90
1385;DHT22;686;51.080;13.716;2022-08-25T02:15:37;19.30;99.90
1385;DHT22;686;51.080;13.716;2022-08-25T02:18:03;19.30;99.90
1385;DHT22;686;51.080;13.716;2022-08-25T02:20:29;19.30;99.90
1385;DHT22;686;51.080;13.716;2022-08-25T02:22:58;19.20;99.90
1385;DHT22;686;51.080;13.716;2022-08-25T02:25:24;19.20;99.90
1385;DHT22;686;51.080;13.716;2022-08-25T02:27:50;19.20;99.90
1385;DHT22;686;51.080;13.716;2022-08-25T02:30:16;19.10;99.90
1385;DHT22;686;51.080;13.716;2022-08-25T02:32:42;19.10;99.90
1385;DHT22;686;51.080;13.716;2022-08-25T02:35:09;19.10;99.90
1385;DHT22;686;51.080;13.716;2022-08-25T02:37:35;19.00;99.90
1385;DHT22;686;51.080;13.716;2022-08-25T02:40:01;19.00;99.90
1385;DHT22;686;51.080;13.716;2022-08-25T02:42:27;19.00;99.90
1385;DHT22;686;51.080;13.716;2022-08-25T02:44:53;19.10;99.90
1385;DHT22;686;51.080;13.716;2022-08-25T02:47:19;19.10;99.90
1385;DHT22;686;51.080;13.716;2022-08-25T02:49:47;19.20;99.90
1385;DHT22;686;51.080;13.716;2022-08-25T02:52:14;19.20;99.90
1385;DHT22;686;51.080;13.716;2022-08-25T02:54:40;19.20;99.90
1385;DHT22;686;51.080;13.716;2022-08-25T02:57:06;19.20;99.90
1385;DHT22;686;51.080;13.716;2022-08-25T02:59:31;19.20;99.90
1385;DHT22;686;51.080;13.716;2022-08-25T03:01:57;19.20;99.90
1385;DHT22;686;51.080;13.716;2022-08-25T03:04:23;19.30;99.90
1385;DHT22;686;51.080;13.716;2022-08-25T03:06:49;19.30;99.90
1385;DHT22;686;51.080;13.716;2022-08-25T03:09:15;19.30;99.90
1385;DHT22;686;51.080;13.716;2022-08-25T03:11:41;19.30;99.90
1385;DHT22;686;51.080;13.716;2022-08-25T03:14:08;19.30;99.90
1385;DHT22;686;51.080;13.716;2022-08-25T03:16:35;19.30;99.90
1385;DHT22;686;51.080;13.716;2022-08-25T03:19:02;19.30;99.90
1385;DHT22;686;51.080;13.716;2022-08-25T03:21:28;19.30;99.90
1385;DHT22;686;51.080;13.716;2022-08-25T03:23:55;19.30;99.90
1385;DHT22;686;51.080;13.716;2022-08-25T03:26:21;19.20;99.90
1385;DHT22;686;51.080;13.716;2022-08-25T03:29:06;19.20;99.90
1385;DHT22;686;51.080;13.716;2022-08-25T03:31:33;19.20;99.90
1385;DHT22;686;51.080;13.716;2022-08-25T03:34:00;19.10;99.90
1385;DHT22;686;51.080;13.716;2022-08-25T03:36:27;19.10;99.90
1385;DHT22;686;51.080;13.716;2022-08-25T03:38:53;19.10;99.90
1385;DHT22;686;51.080;13.716;2022-08-25T03:41:24;19.10;99.90
1385;DHT22;686;51.080;13.716;2022-08-25T03:43:50;19.20;99.90
1385;DHT22;686;51.080;13.716;2022-08-25T03:46:44;19.20;99.90
1385;DHT22;686;51.080;13.716;2022-08-25T03:49:13;19.10;99.90
1385;DHT22;686;51.080;13.716;2022-08-25T03:51:41;19.20;99.90
1385;DHT22;686;51.080;13.716;2022-08-25T03:54:08;19.00;99.90
1385;DHT22;686;51.080;13.716;2022-08-25T03:56:35;19.00;99.90
1385;DHT22;686;51.080;13.716;2022-08-25T03:59:00;19.10;99.90
1385;DHT22;686;51.080;13.716;2022-08-25T04:01:27;19.10;99.90
1385;DHT22;686;51.080;13.716;2022-08-25T04:03:53;19.00;99.90
1385;DHT22;686;51.080;13.716;2022-08-25T04:06:19;19.00;99.90
1385;DHT22;686;51.080;13.716;2022-08-25T04:08:45;19.00;99.90
1385;DHT22;686;51.080;13.716;2022-08-25T04:11:17;19.00;99.90
1385;DHT22;686;51.080;13.716;2022-08-25T04:13:44;18.90;99.90
1385;DHT22;686;51.080;13.716;2022-08-25T04:16:16;18.90;99.90
1385;DHT22;686;51.080;13.716;2022-08-25T04:18:43;18.90;99.90
1385;DHT22;686;51.080;13.716;2022-08-25T04:21:10;18.90;99.90
1385;DHT22;686;51.080;13.716;2022-08-25T04:23:41;18.90;99.90
1385;DHT22;686;51.080;13.716;2022-08-25T04:26:12;18.90;99.90
1385;DHT22;686;51.080;13.716;2022-08-25T04:28:38;18.90;99.90
1385;DHT22;686;51.080;13.716;2022-08-25T04:31:08;18.90;99.90
1385;DHT22;686;51.080;13.716;2022-08-25T04:33:36;18.80;99.90
1385;DHT22;686;51.080;13.716;2022-08-25T04:36:04;18.80;99.90
1385;DHT22;686;51.080;13.716;2022-08-25T04:38:31;18.70;99.90
1385;DHT22;686;51.080;13.716;2022-08-25T04:40:58;18.80;99.90
1385;DHT22;686;51.080;13.716;2022-08-25T04:43:25;18.90;99.90
1385;DHT22;686;51.080;13.716;2022-08-25T04:45:52;18.90;99.90
1385;DHT22;686;51.080;13.716;2022-08-25T04:48:18;19.00;99.90
1385;DHT22;686;51.080;13.716;2022-08-25T04:50:45;19.00;99.90
1385;DHT22;686;51.080;13.716;2022-08-25T04:53:14;19.00;99.90
1385;DHT22;686;51.080;13.716;2022-08-25T04:55:45;19.00;99.90
1385;DHT22;686;51.080;13.716;2022-08-25T04:58:11;19.00;99.90
1385;DHT22;686;51.080;13.716;2022-08-25T05:00:38;19.00;99.90
1385;DHT22;686;51.080;13.716;2022-08-25T05:03:08;19.00;99.90
1385;DHT22;686;51.080;13.716;2022-08-25T05:05:36;19.00;99.90
1385;DHT22;686;51.080;13.716;2022-08-25T05:08:02;19.00;99.90
1385;DHT22;686;51.080;13.716;2022-08-25T05:10:29;19.00;99.90
1385;DHT22;686;51.080;13.716;2022-08-25T05:12:54;19.10;99.90
1385;DHT22;686;51.080;13.716;2022-08-25T05:15:20;19.10;99.90
1385;DHT22;686;51.080;13.716;2022-08-25T05:18:04;19.20;99.90
1385;DHT22;686;51.080;13.716;2022-08-25T05:20:30;19.20;99.90
1385;DHT22;686;51.080;13.716;2022-08-25T05:22:57;19.20;99.90
1385;DHT22;686;51.080;13.716;2022-08-25T05:25:23;19.30;99.90
1385;DHT22;686;51.080;13.716;2022-08-25T05:27:49;19.40;99.90
1385;DHT22;686;51.080;13.716;2022-08-25T05:30:15;19.50;99.90
1385;DHT22;686;51.080;13.716;2022-08-25T05:32:40;19.50;99.90
1385;DHT22;686;51.080;13.716;2022-08-25T05:35:07;19.60;99.90
1385;DHT22;686;51.080;13.716;2022-08-25T05:37:33;19.70;99.90
1385;DHT22;686;51.080;13.716;2022-08-25T05:39:59;19.70;99.90
1385;DHT22;686;51.080;13.716;2022-08-25T05:42:26;19.70;99.90
1385;DHT22;686;51.080;13.716;2022-08-25T05:44:53;19.80;99.90
1385;DHT22;686;51.080;13.716;2022-08-25T05:47:19;19.90;99.90
1385;DHT22;686;51.080;13.716;2022-08-25T05:49:45;20.00;99.90
1385;DHT22;686;51.080;13.716;2022-08-25T05:52:11;20.10;99.90
1385;DHT22;686;51.080;13.716;2022-08-25T05:54:37;20.30;99.90
1385;DHT22;686;51.080;13.716;2022-08-25T05:57:05;20.40;99.90
1385;DHT22;686;51.080;13.716;2022-08-25T05:59:30;20.40;99.90
1385;DHT22;686;51.080;13.716;2022-08-25T06:01:56;20.50;99.90
1385;DHT22;686;51.080;13.716;2022-08-25T06:04:41;20.60;99.90
1385;DHT22;686;51.080;13.716;2022-08-25T06:07:06;20.80;99.90
1385;DHT22;686;51.080;13.716;2022-08-25T06:09:32;21.00;99.90
1385;DHT22;686;51.080;13.716;2022-08-25T06:11:58;21.00;99.90
1385;DHT22;686;51.080;13.716;2022-08-25T06:14:23;20.90;99.90
1385;DHT22;686;51.080;13.716;2022-08-25T06:16:50;20.50;99.90
1385;DHT22;686;51.080;13.716;2022-08-25T06:19:16;20.60;99.90
1385;DHT22;686;51.080;13.716;2022-08-25T06:21:42;20.60;99.90
1385;DHT22;686;51.080;13.716;2022-08-25T06:24:09;20.70;99.90
1385;DHT22;686;51.080;13.716;2022-08-25T06:26:36;20.90;99.90
1385;DHT22;686;51.080;13.716;2022-08-25T06:29:02;21.00;99.90
1385;DHT22;686;51.080;13.716;2022-08-25T06:31:28;21.10;99.90
1385;DHT22;686;51.080;13.716;2022-08-25T06:33:53;21.20;99.90
1385;DHT22;686;51.080;13.716;2022-08-25T06:36:19;21.20;99.90
1385;DHT22;686;51.080;13.716;2022-08-25T06:38:45;21.20;99.90
1385;DHT22;686;51.080;13.716;2022-08-25T06:41:11;21.20;99.90
1385;DHT22;686;51.080;13.716;2022-08-25T06:43:39;21.40;99.90
1385;DHT22;686;51.080;13.716;2022-08-25T06:46:14;21.40;99.90
1385;DHT22;686;51.080;13.716;2022-08-25T06:48:40;21.50;99.90
1385;DHT22;686;51.080;13.716;2022-08-25T06:51:11;21.50;99.90
1385;DHT22;686;51.080;13.716;2022-08-25T06:53:38;21.60;99.90
1385;DHT22;686;51.080;13.716;2022-08-25T06:56:05;21.80;99.90
1385;DHT22;686;51.080;13.716;2022-08-25T06:58:31;21.90;99.90
1385;DHT22;686;51.080;13.716;2022-08-25T07:01:17;21.90;99.90
1385;DHT22;686;51.080;13.716;2022-08-25T07:03:44;22.00;99.90
1385;DHT22;686;51.080;13.716;2022-08-25T07:06:10;22.20;99.90
1385;DHT22;686;51.080;13.716;2022-08-25T07:08:36;22.20;99.90
1385;DHT22;686;51.080;13.716;2022-08-25T07:11:05;22.30;99.90
1385;DHT22;686;51.080;13.716;2022-08-25T07:13:31;22.30;99.90
1385;DHT22;686;51.080;13.716;2022-08-25T07:15:57;22.30;99.90
1385;DHT22;686;51.080;13.716;2022-08-25T07:18:23;22.30;99.90
1385;DHT22;686;51.080;13.716;2022-08-25T07:20:49;22.30;99.90
1385;DHT22;686;51.080;13.716;2022-08-25T07:23:17;22.30;99.90
1385;DHT22;686;51.080;13.716;2022-08-25T07:25:43;22.40;99.90
1385;DHT22;686;51.080;13.716;2022-08-25T07:28:08;22.50;99.90
1385;DHT22;686;51.080;13.716;2022-08-25T07:30:34;22.50;99.90
1385;DHT22;686;51.080;13.716;2022-08-25T07:33:00;22.80;99.90
1385;DHT22;686;51.080;13.716;2022-08-25T07:35:26;22.90;99.90
1385;DHT22;686;51.080;13.716;2022-08-25T07:37:54;22.90;99.90
1385;DHT22;686;51.080;13.716;2022-08-25T07:40:32;22.90;99.90
1385;DHT22;686;51.080;13.716;2022-08-25T07:43:01;23.10;99.90
1385;DHT22;686;51.080;13.716;2022-08-25T07:45:30;23.30;99.90
1385;DHT22;686;51.080;13.716;2022-08-25T07:48:08;23.40;99.90
1385;DHT22;686;51.080;13.716;2022-08-25T07:50:36;23.40;99.90
1385;DHT22;686;51.080;13.716;2022-08-25T07:53:03;23.30;99.90
1385;DHT22;686;51.080;13.716;2022-08-25T07:55:30;23.30;99.90
1385;DHT22;686;51.080;13.716;2022-08-25T07:57:56;23.40;99.90
1385;DHT22;686;51.080;13.716;2022-08-25T08:00:25;23.50;99.90
1385;DHT22;686;51.080;13.716;2022-08-25T08:02:52;23.70;99.90
1385;DHT22;686;51.080;13.716;2022-08-25T08:05:18;24.00;99.90
1385;DHT22;686;51.080;13.716;2022-08-25T08:07:44;24.10;99.90
1385;DHT22;686;51.080;13.716;2022-08-25T08:10:12;24.20;99.90
1385;DHT22;686;51.080;13.716;2022-08-25T08:12:38;24.30;99.90
1385;DHT22;686;51.080;13.716;2022-08-25T08:15:04;24.30;99.90
1385;DHT22;686;51.080;13.716;2022-08-25T08:17:30;24.30;99.90
1385;DHT22;686;51.080;13.716;2022-08-25T08:19:57;24.40;99.90
1385;DHT22;686;51.080;13.716;2022-08-25T08:22:22;24.50;99.90
1385;DHT22;686;51.080;13.716;2022-08-25T08:24:48;24.50;99.90
1385;DHT22;686;51.080;13.716;2022-08-25T08:27:14;24.60;99.90
1385;DHT22;686;51.080;13.716;2022-08-25T08:29:41;24.60;99.90
1385;DHT22;686;51.080;13.716;2022-08-25T08:32:12;24.50;99.90
1385;DHT22;686;51.080;13.716;2022-08-25T08:34:41;24.80;99.90
1385;DHT22;686;51.080;13.716;2022-08-25T08:37:08;24.80;99.90
1385;DHT22;686;51.080;13.716;2022-08-25T08:39:33;24.70;99.90
1385;DHT22;686;51.080;13.716;2022-08-25T08:42:23;24.70;99.90
1385;DHT22;686;51.080;13.716;2022-08-25T08:47:52;24.70;99.90
1385;DHT22;686;51.080;13.716;2022-08-25T08:53:22;25.40;99.90
1385;DHT22;686;51.080;13.716;2022-08-25T08:55:54;25.50;99.90
1385;DHT22;686;51.080;13.716;2022-08-25T09:00:52;25.90;99.90
1385;DHT22;686;51.080;13.716;2022-08-25T09:04:56;26.30;99.90
1385;DHT22;686;51.080;13.716;2022-08-25T09:06:49;26.40;99.90
1385;DHT22;686;51.080;13.716;2022-08-25T09:09:27;26.40;99.90
1385;DHT22;686;51.080;13.716;2022-08-25T09:12:33;26.20;99.90
1385;DHT22;686;51.080;13.716;2022-08-25T09:21:02;25.90;99.90
1385;DHT22;686;51.080;13.716;2022-08-25T09:26:56;25.60;99.90
1385;DHT22;686;51.080;13.716;2022-08-25T09:29:41;25.60;99.90
1385;DHT22;686;51.080;13.716;2022-08-25T09:32:10;25.70;99.90
1385;DHT22;686;51.080;13.716;2022-08-25T09:34:36;25.90;99.90
1385;DHT22;686;51.080;13.716;2022-08-25T09:37:02;26.00;99.90
1385;DHT22;686;51.080;13.716;2022-08-25T09:39:27;26.20;99.90
1385;DHT22;686;51.080;13.716;2022-08-25T09:41:56;26.60;99.90
1385;DHT22;686;51.080;13.716;2022-08-25T09:44:37;27.00;99.90
1385;DHT22;686;51.080;13.716;2022-08-25T09:52:32;26.70;99.90
1385;DHT22;686;51.080;13.716;2022-08-25T09:57:53;26.40;99.90
1385;DHT22;686;51.080;13.716;2022-08-25T10:00:30;26.60;99.90
1385;DHT22;686;51.080;13.716;2022-08-25T10:03:11;27.10;99.90
1385;DHT22;686;51.080;13.716;2022-08-25T10:08:40;27.10;99.90
1385;DHT22;686;51.080;13.716;2022-08-25T10:16:49;27.20;99.90
1385;DHT22;686;51.080;13.716;2022-08-25T10:19:22;27.40;99.90
1385;DHT22;686;51.080;13.716;2022-08-25T10:24:27;27.30;99.90
1385;DHT22;686;51.080;13.716;2022-08-25T10:30:14;27.10;99.90
1385;DHT22;686;51.080;13.716;2022-08-25T10:35:21;27.00;99.90
1385;DHT22;686;51.080;13.716;2022-08-25T10:38:15;27.00;99.90
1385;DHT22;686;51.080;13.716;2022-08-25T10:40:56;27.20;99.90
1385;DHT22;686;51.080;13.716;2022-08-25T10:43:37;27.00;99.90
1385;DHT22;686;51.080;13.716;2022-08-25T10:48:57;27.00;99.90
1385;DHT22;686;51.080;13.716;2022-08-25T10:57:00;26.90;99.90
1385;DHT22;686;51.080;13.716;2022-08-25T11:02:50;26.90;99.90
1385;DHT22;686;51.080;13.716;2022-08-25T11:05:32;27.30;99.90
1385;DHT22;686;51.080;13.716;2022-08-25T11:11:01;27.90;99.90
1385;DHT22;686;51.080;13.716;2022-08-25T11:13:45;28.00;99.90
1385;DHT22;686;51.080;13.716;2022-08-25T11:19:19;28.10;99.90
1385;DHT22;686;51.080;13.716;2022-08-25T11:22:14;28.10;99.90
1385;DHT22;686;51.080;13.716;2022-08-25T11:27:32;28.10;99.90
1385;DHT22;686;51.080;13.716;2022-08-25T11:30:07;27.70;99.90
1385;DHT22;686;51.080;13.716;2022-08-25T11:32:37;27.60;99.90
1385;DHT22;686;51.080;13.716;2022-08-25T11:35:07;27.70;99.90
1385;DHT22;686;51.080;13.716;2022-08-25T11:51:32;28.30;99.90
1385;DHT22;686;51.080;13.716;2022-08-25T11:54:43;28.30;99.90
1385;DHT22;686;51.080;13.716;2022-08-25T12:02:44;28.60;99.90
1385;DHT22;686;51.080;13.716;2022-08-25T12:10:23;28.90;99.90
1385;DHT22;686;51.080;13.716;2022-08-25T12:13:01;28.50;99.90
1385;DHT22;686;51.080;13.716;2022-08-25T12:23:28;29.30;99.90
1385;DHT22;686;51.080;13.716;2022-08-25T12:25:57;29.40;99.90
1385;DHT22;686;51.080;13.716;2022-08-25T12:31:19;29.20;99.90
1385;DHT22;686;51.080;13.716;2022-08-25T12:36:31;29.60;99.90
1385;DHT22;686;51.080;13.716;2022-08-25T12:39:18;29.80;99.90
1385;DHT22;686;51.080;13.716;2022-08-25T12:42:00;29.90;99.90
1385;DHT22;686;51.080;13.716;2022-08-25T12:44:45;29.90;99.90
1385;DHT22;686;51.080;13.716;2022-08-25T12:49:44;30.00;99.90
1385;DHT22;686;51.080;13.716;2022-08-25T12:52:19;29.80;99.90
1385;DHT22;686;51.080;13.716;2022-08-25T12:54:55;29.90;99.90
1385;DHT22;686;51.080;13.716;2022-08-25T13:09:06;29.90;99.90
1385;DHT22;686;51.080;13.716;2022-08-25T13:11:54;29.50;99.90
1385;DHT22;686;51.080;13.716;2022-08-25T13:14:42;29.50;99.90
1385;DHT22;686;51.080;13.716;2022-08-25T13:17:09;29.20;99.90
1385;DHT22;686;51.080;13.716;2022-08-25T13:19:35;29.20;99.90
1385;DHT22;686;51.080;13.716;2022-08-25T13:22:09;29.30;99.90
1385;DHT22;686;51.080;13.716;2022-08-25T13:24:39;29.40;99.90
1385;DHT22;686;51.080;13.716;2022-08-25T13:27:07;29.20;99.90
1385;DHT22;686;51.080;13.716;2022-08-25T13:29:36;29.10;99.90
1385;DHT22;686;51.080;13.716;2022-08-25T13:32:16;29.10;99.90
1385;DHT22;686;51.080;13.716;2022-08-25T13:34:49;29.20;99.90
1385;DHT22;686;51.080;13.716;2022-08-25T13:37:16;29.10;99.90
1385;DHT22;686;51.080;13.716;2022-08-25T13:40:13;29.10;99.90
1385;DHT22;686;51.080;13.716;2022-08-25T13:42:45;29.10;99.90
1385;DHT22;686;51.080;13.716;2022-08-25T13:45:15;29.30;99.90
1385;DHT22;686;51.080;13.716;2022-08-25T13:47:42;29.50;99.90
1385;DHT22;686;51.080;13.716;2022-08-25T13:52:39;29.00;99.90
1385;DHT22;686;51.080;13.716;2022-08-25T13:55:05;29.00;99.90
1385;DHT22;686;51.080;13.716;2022-08-25T13:57:32;28.90;99.90
1385;DHT22;686;51.080;13.716;2022-08-25T14:00:09;28.80;99.90
1385;DHT22;686;51.080;13.716;2022-08-25T14:05:12;28.80;99.90
1385;DHT22;686;51.080;13.716;2022-08-25T14:07:38;28.80;99.90
1385;DHT22;686;51.080;13.716;2022-08-25T14:10:18;28.70;99.90
1385;DHT22;686;51.080;13.716;2022-08-25T14:15:53;28.60;99.90
1385;DHT22;686;51.080;13.716;2022-08-25T14:18:28;28.60;99.90
1385;DHT22;686;51.080;13.716;2022-08-25T14:20:56;28.60;99.90
1385;DHT22;686;51.080;13.716;2022-08-25T14:23:25;28.80;99.90
1385;DHT22;686;51.080;13.716;2022-08-25T14:25:53;29.00;99.90
1385;DHT22;686;51.080;13.716;2022-08-25T14:28:25;29.10;99.90
1385;DHT22;686;51.080;13.716;2022-08-25T14:30:58;29.30;99.90
1385;DHT22;686;51.080;13.716;2022-08-25T14:33:50;29.40;99.90
1385;DHT22;686;51.080;13.716;2022-08-25T14:36:17;29.30;99.90
1385;DHT22;686;51.080;13.716;2022-08-25T14:38:43;29.50;99.90
1385;DHT22;686;51.080;13.716;2022-08-25T14:41:08;29.10;99.90
1385;DHT22;686;51.080;13.716;2022-08-25T14:43:34;28.80;99.90
1385;DHT22;686;51.080;13.716;2022-08-25T14:46:08;28.80;99.90
1385;DHT22;686;51.080;13.716;2022-08-25T14:48:40;28.70;99.90
1385;DHT22;686;51.080;13.716;2022-08-25T14:51:07;28.80;99.90
1385;DHT22;686;51.080;13.716;2022-08-25T14:53:34;28.60;99.90
1385;DHT22;686;51.080;13.716;2022-08-25T14:56:00;28.60;99.90
1385;DHT22;686;51.080;13.716;2022-08-25T14:58:26;28.60;99.90
1385;DHT22;686;51.080;13.716;2022-08-25T15:00:53;28.60;99.90
1385;DHT22;686;51.080;13.716;2022-08-25T15:03:27;28.60;99.90
1385;DHT22;686;51.080;13.716;2022-08-25T15:05:54;28.70;99.90
1385;DHT22;686;51.080;13.716;2022-08-25T15:08:19;28.80;99.90
1385;DHT22;686;51.080;13.716;2022-08-25T15:11:04;28.70;99.90
1385;DHT22;686;51.080;13.716;2022-08-25T15:13:30;28.60;99.90
1385;DHT22;686;51.080;13.716;2022-08-25T15:15:55;28.60;99.90
1385;DHT22;686;51.080;13.716;2022-08-25T15:18:22;28.60;99.90
1385;DHT22;686;51.080;13.716;2022-08-25T15:20:48;28.60;99.90
1385;DHT22;686;51.080;13.716;2022-08-25T15:23:14;28.70;99.90
1385;DHT22;686;51.080;13.716;2022-08-25T15:25:40;28.70;99.90
1385;DHT22;686;51.080;13.716;2022-08-25T15:28:07;29.00;99.90
1385;DHT22;686;51.080;13.716;2022-08-25T15:30:34;29.00;99.90
1385;DHT22;686;51.080;13.716;2022-08-25T15:33:00;28.90;99.90
1385;DHT22;686;51.080;13.716;2022-08-25T15:35:26;28.80;99.90
1385;DHT22;686;51.080;13.716;2022-08-25T15:37:52;28.70;99.90
1385;DHT22;686;51.080;13.716;2022-08-25T15:40:18;28.70;99.90
1385;DHT22;686;51.080;13.716;2022-08-25T15:42:44;28.50;99.90
1385;DHT22;686;51.080;13.716;2022-08-25T15:45:10;28.30;99.90
1385;DHT22;686;51.080;13.716;2022-08-25T15:47:36;28.20;99.90
1385;DHT22;686;51.080;13.716;2022-08-25T15:50:09;28.10;99.90
1385;DHT22;686;51.080;13.716;2022-08-25T15:52:35;28.00;99.90
1385;DHT22;686;51.080;13.716;2022-08-25T15:55:02;27.90;99.90
1385;DHT22;686;51.080;13.716;2022-08-25T15:57:28;27.80;99.90
1385;DHT22;686;51.080;13.716;2022-08-25T15:59:54;27.80;99.90
1385;DHT22;686;51.080;13.716;2022-08-25T16:02:20;27.80;99.90
1385;DHT22;686;51.080;13.716;2022-08-25T16:04:46;28.00;99.90
1385;DHT22;686;51.080;13.716;2022-08-25T16:07:12;27.90;99.90
1385;DHT22;686;51.080;13.716;2022-08-25T16:09:37;27.90;99.90
1385;DHT22;686;51.080;13.716;2022-08-25T16:12:06;28.00;99.90
1385;DHT22;686;51.080;13.716;2022-08-25T16:14:32;28.10;99.90
1385;DHT22;686;51.080;13.716;2022-08-25T16:16:58;28.30;99.90
1385;DHT22;686;51.080;13.716;2022-08-25T16:19:28;28.40;99.90
1385;DHT22;686;51.080;13.716;2022-08-25T16:21:58;28.50;99.90
1385;DHT22;686;51.080;13.716;2022-08-25T16:24:24;28.50;99.90
1385;DHT22;686;51.080;13.716;2022-08-25T16:26:50;28.70;99.90
1385;DHT22;686;51.080;13.716;2022-08-25T16:29:17;28.80;99.90
1385;DHT22;686;51.080;13.716;2022-08-25T16:31:44;28.70;99.90
1385;DHT22;686;51.080;13.716;2022-08-25T16:34:14;28.60;99.90
1385;DHT22;686;51.080;13.716;2022-08-25T16:36:40;28.70;99.90
1385;DHT22;686;51.080;13.716;2022-08-25T16:39:06;28.60;99.90
1385;DHT22;686;51.080;13.716;2022-08-25T16:41:32;28.30;99.90
1385;DHT22;686;51.080;13.716;2022-08-25T16:44:02;28.10;99.90
1385;DHT22;686;51.080;13.716;2022-08-25T16:46:35;28.10;99.90
1385;DHT22;686;51.080;13.716;2022-08-25T16:49:15;28.00;99.90
1385;DHT22;686;51.080;13.716;2022-08-25T16:51:41;27.80;99.90
1385;DHT22;686;51.080;13.716;2022-08-25T16:54:09;27.80;99.90
1385;DHT22;686;51.080;13.716;2022-08-25T16:56:54;27.80;99.90
1385;DHT22;686;51.080;13.716;2022-08-25T16:59:23;27.90;99.90
1385;DHT22;686;51.080;13.716;2022-08-25T17:01:52;27.90;99.90
1385;DHT22;686;51.080;13.716;2022-08-25T17:04:19;28.00;99.90
1385;DHT22;686;51.080;13.716;2022-08-25T17:06:45;27.90;99.90
1385;DHT22;686;51.080;13.716;2022-08-25T17:09:13;28.00;99.90
1385;DHT22;686;51.080;13.716;2022-08-25T17:11:43;28.00;99.90
1385;DHT22;686;51.080;13.716;2022-08-25T17:14:17;27.70;99.90
1385;DHT22;686;51.080;13.716;2022-08-25T17:16:44;27.70;99.90
1385;DHT22;686;51.080;13.716;2022-08-25T17:19:11;27.50;99.90
1385;DHT22;686;51.080;13.716;2022-08-25T17:21:41;27.40;99.90
1385;DHT22;686;51.080;13.716;2022-08-25T17:24:08;27.30;99.90
1385;DHT22;686;51.080;13.716;2022-08-25T17:26:37;27.20;99.90
1385;DHT22;686;51.080;13.716;2022-08-25T17:29:06;27.10;99.90
1385;DHT22;686;51.080;13.716;2022-08-25T17:31:31;27.20;99.90
1385;DHT22;686;51.080;13.716;2022-08-25T17:33:59;27.10;99.90
1385;DHT22;686;51.080;13.716;2022-08-25T17:36:28;27.10;99.90
1385;DHT22;686;51.080;13.716;2022-08-25T17:38:54;27.10;99.90
1385;DHT22;686;51.080;13.716;2022-08-25T17:41:20;27.10;99.90
1385;DHT22;686;51.080;13.716;2022-08-25T17:43:46;27.00;99.90
1385;DHT22;686;51.080;13.716;2022-08-25T17:46:12;26.90;99.90
1385;DHT22;686;51.080;13.716;2022-08-25T17:48:39;26.80;99.90
1385;DHT22;686;51.080;13.716;2022-08-25T17:51:08;26.70;99.90
1385;DHT22;686;51.080;13.716;2022-08-25T17:53:37;26.60;99.90
1385;DHT22;686;51.080;13.716;2022-08-25T17:56:09;26.50;99.90
1385;DHT22;686;51.080;13.716;2022-08-25T17:58:38;26.40;99.90
1385;DHT22;686;51.080;13.716;2022-08-25T18:01:04;26.40;99.90
1385;DHT22;686;51.080;13.716;2022-08-25T18:03:31;26.40;99.90
1385;DHT22;686;51.080;13.716;2022-08-25T18:05:57;26.20;99.90
1385;DHT22;686;51.080;13.716;2022-08-25T18:08:25;26.20;99.90
1385;DHT22;686;51.080;13.716;2022-08-25T18:10:51;26.10;99.90
1385;DHT22;686;51.080;13.716;2022-08-25T18:13:17;26.00;99.90
1385;DHT22;686;51.080;13.716;2022-08-25T18:15:44;26.00;99.90
1385;DHT22;686;51.080;13.716;2022-08-25T18:18:12;25.90;99.90
1385;DHT22;686;51.080;13.716;2022-08-25T18:20:41;25.80;99.90
1385;DHT22;686;51.080;13.716;2022-08-25T18:23:07;25.80;99.90
1385;DHT22;686;51.080;13.716;2022-08-25T18:25:33;25.70;99.90
1385;DHT22;686;51.080;13.716;2022-08-25T18:27:59;25.70;99.90